Gaultois, Canada
Current Conditions -  °F | °C
As of 2:00 PM on Saturday 25 Oct 2014 (Local Time) from LFVP Reporting Station
Light Rain Light Rain  
Wind Chill: 50°   Ceiling: 800
Heat Index: 50°   Visibility: 5mi
Dew Point: 48°   Wind: 22mph
Humidity: 94%   Direction: 30°NNE
Pressure: 29.29"   Gusts: NA
Location:  47.6°N, 55.92°W
Report Text: LFVP 251600Z 03019KT 8000 -RA BKN008 10/09 Q0992 RETS NOSIG
Loading
Personal Weather Stations






























Interactive Weather Map
Tropical Storm Tracking
New forecast layout! Learn more

10-Day Weather Forecast

Advertisements
Track Severe Weather on mobile